TAM9550 SBSP-SBPV
Flight info
| Callsign | TAM9550 |
|---|---|
| Flight time | 3h 3m |
| Altitude | 36000 |
| Route | GERTU UL201 UMDUM UM775 ANRIR UL655 DIKAL UL793 ISOLU |
| Aircraft | A320/M-SDE3FGHIRWY/LB1 |
Departure
| Time | 2026-04-20 13:47 |
|---|---|
| Airport | Congonhas–Deputado Freitas Nobre Airport (SBSP) |
Arrival
| Time | 2026-04-20 16:50 |
|---|---|
| Airport | Governador Jorge Teixeira de Oliveira International Airport (SBPV) |
| Time | Latitude | Longitude | Altitude | Speed | Heading |
|---|---|---|---|---|---|
| 2026-04-20 13:27 | -23.62421 | -46.66028 | 2593 ft | 0 kts | 237° |
| 2026-04-20 13:40 | -23.62414 | -46.66016 | 2600 ft | 4 kts | 246° |
| 2026-04-20 13:40 | -23.62410 | -46.65989 | 2600 ft | 4 kts | 290° |
| 2026-04-20 13:41 | -23.62420 | -46.65973 | 2600 ft | 0 kts | 328° |
| 2026-04-20 13:43 | -23.62414 | -46.65971 | 2600 ft | 4 kts | 11° |
| 2026-04-20 13:43 | -23.62382 | -46.65969 | 2600 ft | 4 kts | 0° |
| 2026-04-20 13:43 | -23.62324 | -46.65991 | 2600 ft | 12 kts | 329° |
| 2026-04-20 13:43 | -23.62259 | -46.66035 | 2600 ft | 10 kts | 331° |
| 2026-04-20 13:44 | -23.62202 | -46.66068 | 2599 ft | 9 kts | 328° |
| 2026-04-20 13:44 | -23.62154 | -46.66101 | 2599 ft | 7 kts | 327° |
| 2026-04-20 13:44 | -23.62115 | -46.66129 | 2591 ft | 6 kts | 328° |
| 2026-04-20 13:44 | -23.62070 | -46.66133 | 2597 ft | 7 kts | 10° |
| 2026-04-20 13:45 | -23.62040 | -46.66096 | 2588 ft | 6 kts | 76° |
| 2026-04-20 13:45 | -23.62052 | -46.66072 | 2593 ft | 3 kts | 138° |
| 2026-04-20 13:45 | -23.62056 | -46.66069 | 2588 ft | 0 kts | 146° |
| 2026-04-20 13:46 | -23.62150 | -46.66005 | 2598 ft | 50 kts | 147° |
| 2026-04-20 13:46 | -23.62656 | -46.65652 | 2606 ft | 119 kts | 147° |
| 2026-04-20 13:46 | -23.63467 | -46.65102 | 2990 ft | 138 kts | 148° |
| 2026-04-20 13:47 | -23.64288 | -46.64507 | 3616 ft | 153 kts | 146° |
| 2026-04-20 13:47 | -23.65326 | -46.63934 | 4113 ft | 179 kts | 170° |
| 2026-04-20 13:47 | -23.66630 | -46.63902 | 4644 ft | 203 kts | 181° |
| 2026-04-20 13:47 | -23.68120 | -46.64063 | 5227 ft | 228 kts | 185° |
| 2026-04-20 13:48 | -23.69785 | -46.64276 | 5850 ft | 253 kts | 185° |
| 2026-04-20 13:48 | -23.71592 | -46.64491 | 6477 ft | 266 kts | 185° |
| 2026-04-20 13:48 | -23.73453 | -46.64695 | 7123 ft | 271 kts | 187° |
| 2026-04-20 13:48 | -23.75206 | -46.65451 | 7827 ft | 278 kts | 217° |
| 2026-04-20 13:49 | -23.76338 | -46.67172 | 8524 ft | 287 kts | 247° |
| 2026-04-20 13:49 | -23.76978 | -46.69246 | 9271 ft | 289 kts | 249° |
| 2026-04-20 13:49 | -23.77621 | -46.71336 | 9984 ft | 292 kts | 246° |
| 2026-04-20 13:49 | -23.78511 | -46.73380 | 10257 ft | 309 kts | 238° |
| 2026-04-20 13:50 | -23.79260 | -46.74742 | 10345 ft | 323 kts | 235° |
| 2026-04-20 13:50 | -23.80561 | -46.76838 | 10464 ft | 343 kts | 234° |
| 2026-04-20 13:50 | -23.81585 | -46.79243 | 10801 ft | 359 kts | 254° |
| 2026-04-20 13:50 | -23.81735 | -46.81988 | 11321 ft | 369 kts | 276° |
| 2026-04-20 13:51 | -23.80910 | -46.84661 | 11876 ft | 378 kts | 298° |
| 2026-04-20 13:51 | -23.79170 | -46.86835 | 12431 ft | 387 kts | 321° |
| 2026-04-20 13:51 | -23.76930 | -46.88499 | 12945 ft | 392 kts | 325° |
| 2026-04-20 13:51 | -23.74630 | -46.90124 | 13467 ft | 396 kts | 325° |
| 2026-04-20 13:52 | -23.72300 | -46.91750 | 13990 ft | 400 kts | 325° |
| 2026-04-20 13:52 | -23.69939 | -46.93396 | 14461 ft | 403 kts | 325° |
| 2026-04-20 13:52 | -23.67570 | -46.95054 | 14955 ft | 406 kts | 325° |
| 2026-04-20 13:52 | -23.65186 | -46.96732 | 15417 ft | 410 kts | 325° |
| 2026-04-20 13:53 | -23.62786 | -46.98428 | 15877 ft | 413 kts | 325° |
| 2026-04-20 13:53 | -23.60363 | -47.00146 | 16342 ft | 416 kts | 325° |
| 2026-04-20 13:53 | -23.57930 | -47.01869 | 16819 ft | 419 kts | 325° |
| 2026-04-20 13:53 | -23.55474 | -47.03607 | 17293 ft | 422 kts | 325° |
| 2026-04-20 13:54 | -23.53000 | -47.05354 | 17759 ft | 425 kts | 325° |
| 2026-04-20 13:54 | -23.50511 | -47.07110 | 18209 ft | 428 kts | 325° |
| 2026-04-20 13:54 | -23.48006 | -47.08876 | 18630 ft | 430 kts | 325° |
| 2026-04-20 13:54 | -23.45491 | -47.10650 | 19041 ft | 432 kts | 325° |
| 2026-04-20 13:55 | -23.42961 | -47.12433 | 19441 ft | 433 kts | 325° |
| 2026-04-20 13:55 | -23.40425 | -47.14218 | 19847 ft | 435 kts | 325° |
| 2026-04-20 13:55 | -23.37878 | -47.16011 | 20246 ft | 437 kts | 325° |
| 2026-04-20 13:55 | -23.35328 | -47.17808 | 20637 ft | 438 kts | 325° |
| 2026-04-20 13:56 | -23.32760 | -47.19617 | 21030 ft | 440 kts | 325° |
| 2026-04-20 13:56 | -23.30172 | -47.21410 | 21421 ft | 442 kts | 328° |
| 2026-04-20 13:56 | -23.27379 | -47.22834 | 21780 ft | 447 kts | 339° |
| 2026-04-20 13:56 | -23.24367 | -47.23718 | 22137 ft | 450 kts | 348° |
| 2026-04-20 13:57 | -23.21279 | -47.24371 | 22505 ft | 453 kts | 348° |
| 2026-04-20 13:57 | -23.18183 | -47.25036 | 22908 ft | 455 kts | 347° |
| 2026-04-20 13:57 | -23.15071 | -47.25710 | 23268 ft | 458 kts | 347° |
| 2026-04-20 13:57 | -23.11936 | -47.26392 | 23627 ft | 460 kts | 347° |
| 2026-04-20 13:58 | -23.08794 | -47.27077 | 23932 ft | 462 kts | 347° |
| 2026-04-20 13:58 | -23.05636 | -47.27770 | 24217 ft | 464 kts | 347° |
| 2026-04-20 13:58 | -23.02470 | -47.28463 | 24499 ft | 466 kts | 347° |
| 2026-04-20 13:58 | -22.99287 | -47.29157 | 24777 ft | 467 kts | 347° |
| 2026-04-20 13:59 | -22.96089 | -47.29851 | 25061 ft | 469 kts | 347° |
| 2026-04-20 13:59 | -22.92926 | -47.30535 | 25338 ft | 471 kts | 347° |
| 2026-04-20 13:59 | -22.89714 | -47.31228 | 25620 ft | 472 kts | 347° |
| 2026-04-20 13:59 | -22.86484 | -47.31926 | 25899 ft | 474 kts | 347° |
| 2026-04-20 14:00 | -22.83244 | -47.32628 | 26179 ft | 475 kts | 347° |
| 2026-04-20 14:00 | -22.80003 | -47.33334 | 26458 ft | 476 kts | 347° |
| 2026-04-20 14:00 | -22.76750 | -47.34044 | 26718 ft | 478 kts | 347° |
| 2026-04-20 14:00 | -22.73478 | -47.34757 | 26965 ft | 479 kts | 347° |
| 2026-04-20 14:01 | -22.70225 | -47.35549 | 27202 ft | 480 kts | 342° |
| 2026-04-20 14:01 | -22.67104 | -47.36815 | 27433 ft | 480 kts | 333° |
| 2026-04-20 14:01 | -22.64202 | -47.38590 | 27671 ft | 479 kts | 323° |
| 2026-04-20 14:01 | -22.61543 | -47.40762 | 27916 ft | 479 kts | 320° |
| 2026-04-20 14:02 | -22.58911 | -47.42981 | 28153 ft | 480 kts | 320° |
| 2026-04-20 14:02 | -22.56267 | -47.45201 | 28389 ft | 482 kts | 320° |
| 2026-04-20 14:02 | -22.53612 | -47.47420 | 28626 ft | 483 kts | 321° |
| 2026-04-20 14:02 | -22.50933 | -47.49650 | 28847 ft | 485 kts | 321° |
| 2026-04-20 14:03 | -22.48254 | -47.51872 | 29099 ft | 486 kts | 321° |
| 2026-04-20 14:03 | -22.45582 | -47.54091 | 29434 ft | 484 kts | 321° |
| 2026-04-20 14:03 | -22.42959 | -47.56362 | 29738 ft | 483 kts | 316° |
| 2026-04-20 14:03 | -22.40595 | -47.58926 | 30023 ft | 482 kts | 312° |
| 2026-04-20 14:04 | -22.38275 | -47.61535 | 30332 ft | 480 kts | 312° |
| 2026-04-20 14:04 | -22.35960 | -47.64131 | 30641 ft | 478 kts | 312° |
| 2026-04-20 14:04 | -22.33652 | -47.66715 | 30938 ft | 477 kts | 312° |
| 2026-04-20 14:04 | -22.31352 | -47.69284 | 31225 ft | 475 kts | 312° |
| 2026-04-20 14:05 | -22.29052 | -47.71846 | 31526 ft | 474 kts | 311° |
| 2026-04-20 14:05 | -22.26761 | -47.74392 | 31818 ft | 473 kts | 311° |
| 2026-04-20 14:05 | -22.24474 | -47.76934 | 32093 ft | 472 kts | 311° |
| 2026-04-20 14:05 | -22.22192 | -47.79470 | 32364 ft | 470 kts | 311° |
| 2026-04-20 14:06 | -22.19914 | -47.82002 | 32658 ft | 469 kts | 310° |
| 2026-04-20 14:06 | -22.17644 | -47.84525 | 32935 ft | 468 kts | 310° |
| 2026-04-20 14:06 | -22.15380 | -47.87044 | 33207 ft | 467 kts | 310° |
| 2026-04-20 14:06 | -22.13116 | -47.89559 | 33486 ft | 466 kts | 310° |
| 2026-04-20 14:07 | -22.10888 | -47.92032 | 33762 ft | 465 kts | 309° |
| 2026-04-20 14:07 | -22.08638 | -47.94532 | 34017 ft | 465 kts | 309° |
| 2026-04-20 14:07 | -22.06361 | -47.97061 | 34253 ft | 464 kts | 309° |
| 2026-04-20 14:07 | -22.04140 | -47.99524 | 34470 ft | 464 kts | 309° |
| 2026-04-20 14:08 | -22.01895 | -48.02013 | 34674 ft | 463 kts | 309° |
| 2026-04-20 14:08 | -21.99645 | -48.04504 | 34871 ft | 463 kts | 309° |
| 2026-04-20 14:08 | -21.97392 | -48.06997 | 35074 ft | 463 kts | 309° |
| 2026-04-20 14:08 | -21.95149 | -48.09480 | 35284 ft | 462 kts | 309° |
| 2026-04-20 14:09 | -21.92908 | -48.11957 | 35470 ft | 462 kts | 309° |
| 2026-04-20 14:09 | -21.90665 | -48.14434 | 35652 ft | 462 kts | 309° |
| 2026-04-20 14:09 | -21.88423 | -48.16914 | 35846 ft | 461 kts | 308° |
| 2026-04-20 14:09 | -21.86189 | -48.19386 | 36005 ft | 461 kts | 309° |
| 2026-04-20 14:10 | -21.81689 | -48.24358 | 36091 ft | 467 kts | 309° |
| 2026-04-20 14:10 | -21.77107 | -48.29414 | 36090 ft | 474 kts | 309° |
| 2026-04-20 14:11 | -21.72486 | -48.34506 | 36081 ft | 476 kts | 309° |
| 2026-04-20 14:11 | -21.67859 | -48.39603 | 36086 ft | 476 kts | 309° |
| 2026-04-20 14:12 | -21.63226 | -48.44693 | 36082 ft | 476 kts | 309° |
| 2026-04-20 14:12 | -21.58596 | -48.49777 | 36089 ft | 477 kts | 309° |
| 2026-04-20 14:13 | -21.53952 | -48.54866 | 36088 ft | 477 kts | 309° |
| 2026-04-20 14:13 | -21.49303 | -48.59954 | 36093 ft | 477 kts | 309° |
| 2026-04-20 14:14 | -21.44660 | -48.65034 | 36100 ft | 477 kts | 309° |
| 2026-04-20 14:14 | -21.40026 | -48.70114 | 36092 ft | 476 kts | 309° |
| 2026-04-20 14:15 | -21.35390 | -48.75188 | 36095 ft | 476 kts | 309° |
| 2026-04-20 14:15 | -21.30744 | -48.80256 | 36092 ft | 476 kts | 309° |
| 2026-04-20 14:16 | -21.26107 | -48.85315 | 36091 ft | 476 kts | 309° |
| 2026-04-20 14:16 | -21.21466 | -48.90367 | 36090 ft | 475 kts | 309° |
| 2026-04-20 14:17 | -21.16828 | -48.95420 | 36084 ft | 475 kts | 309° |
| 2026-04-20 14:17 | -21.12202 | -49.00470 | 36081 ft | 475 kts | 309° |
| 2026-04-20 14:18 | -21.07578 | -49.05515 | 36082 ft | 474 kts | 309° |
| 2026-04-20 14:18 | -21.02955 | -49.10551 | 36081 ft | 474 kts | 309° |
| 2026-04-20 14:19 | -20.98333 | -49.15578 | 36091 ft | 474 kts | 309° |
| 2026-04-20 14:19 | -20.93703 | -49.20600 | 36101 ft | 473 kts | 309° |
| 2026-04-20 14:20 | -20.89083 | -49.25614 | 36116 ft | 473 kts | 309° |
| 2026-04-20 14:20 | -20.84462 | -49.30619 | 36122 ft | 473 kts | 309° |
| 2026-04-20 14:21 | -20.79840 | -49.35627 | 36127 ft | 472 kts | 309° |
| 2026-04-20 14:21 | -20.75226 | -49.40614 | 36124 ft | 472 kts | 308° |
| 2026-04-20 14:22 | -20.70604 | -49.45601 | 36120 ft | 472 kts | 308° |
| 2026-04-20 14:22 | -20.66031 | -49.50549 | 36106 ft | 471 kts | 308° |
| 2026-04-20 14:23 | -20.61428 | -49.55521 | 36099 ft | 470 kts | 309° |
| 2026-04-20 14:23 | -20.56824 | -49.60476 | 36069 ft | 470 kts | 308° |
| 2026-04-20 14:24 | -20.52228 | -49.65436 | 36071 ft | 470 kts | 308° |
| 2026-04-20 14:24 | -20.47631 | -49.70382 | 36067 ft | 470 kts | 308° |
| 2026-04-20 14:25 | -20.43023 | -49.75323 | 36060 ft | 470 kts | 309° |
| 2026-04-20 14:25 | -20.38423 | -49.80257 | 36056 ft | 469 kts | 308° |
| 2026-04-20 14:26 | -20.33830 | -49.85203 | 36047 ft | 469 kts | 308° |
| 2026-04-20 14:26 | -20.29238 | -49.90136 | 36059 ft | 469 kts | 308° |
| 2026-04-20 14:27 | -20.24636 | -49.95065 | 36056 ft | 469 kts | 309° |
| 2026-04-20 14:27 | -20.20031 | -49.99983 | 36056 ft | 469 kts | 309° |
| 2026-04-20 14:28 | -20.15430 | -50.04904 | 36054 ft | 469 kts | 308° |
| 2026-04-20 14:28 | -20.10833 | -50.09830 | 36053 ft | 469 kts | 308° |
| 2026-04-20 14:29 | -20.06231 | -50.14743 | 36046 ft | 469 kts | 308° |
| 2026-04-20 14:29 | -20.01617 | -50.19663 | 36045 ft | 469 kts | 309° |
| 2026-04-20 14:30 | -19.97030 | -50.24542 | 36043 ft | 469 kts | 309° |
| 2026-04-20 14:30 | -19.92414 | -50.29446 | 36044 ft | 469 kts | 309° |
| 2026-04-20 14:31 | -19.87806 | -50.34353 | 36045 ft | 469 kts | 308° |
| 2026-04-20 14:31 | -19.83202 | -50.39254 | 36050 ft | 468 kts | 309° |
| 2026-04-20 14:32 | -19.78595 | -50.44143 | 36025 ft | 468 kts | 308° |
| 2026-04-20 14:32 | -19.73984 | -50.49030 | 36033 ft | 468 kts | 308° |
| 2026-04-20 14:33 | -19.70161 | -50.53090 | 36030 ft | 468 kts | 308° |
| 2026-04-20 14:33 | -19.64752 | -50.58794 | 36035 ft | 470 kts | 309° |
| 2026-04-20 14:34 | -19.60783 | -50.62734 | 36037 ft | 471 kts | 311° |
| 2026-04-20 14:34 | -19.55897 | -50.67376 | 36034 ft | 472 kts | 312° |
| 2026-04-20 14:35 | -19.51016 | -50.72023 | 36031 ft | 471 kts | 311° |
| 2026-04-20 14:35 | -19.46194 | -50.76696 | 36030 ft | 470 kts | 311° |
| 2026-04-20 14:36 | -19.41386 | -50.81382 | 36026 ft | 469 kts | 311° |
| 2026-04-20 14:36 | -19.36570 | -50.86060 | 36017 ft | 470 kts | 311° |
| 2026-04-20 14:37 | -19.31741 | -50.90726 | 36020 ft | 470 kts | 311° |
| 2026-04-20 14:37 | -19.26915 | -50.95385 | 36024 ft | 469 kts | 311° |
| 2026-04-20 14:38 | -19.22089 | -51.00043 | 36027 ft | 469 kts | 311° |
| 2026-04-20 14:38 | -19.17256 | -51.04700 | 36027 ft | 470 kts | 311° |
| 2026-04-20 14:39 | -19.12426 | -51.09354 | 36024 ft | 470 kts | 311° |
| 2026-04-20 14:39 | -19.07597 | -51.14003 | 36027 ft | 469 kts | 311° |
| 2026-04-20 14:40 | -19.02773 | -51.18656 | 36024 ft | 469 kts | 311° |
| 2026-04-20 14:40 | -18.97951 | -51.23301 | 36024 ft | 469 kts | 311° |
| 2026-04-20 14:41 | -18.93120 | -51.27946 | 36017 ft | 469 kts | 311° |
| 2026-04-20 14:41 | -18.88289 | -51.32586 | 36020 ft | 469 kts | 311° |
| 2026-04-20 14:42 | -18.83459 | -51.37231 | 36022 ft | 469 kts | 311° |
| 2026-04-20 14:42 | -18.78632 | -51.41863 | 36026 ft | 469 kts | 311° |
| 2026-04-20 14:43 | -18.73829 | -51.46457 | 36030 ft | 469 kts | 312° |
| 2026-04-20 14:43 | -18.68999 | -51.51084 | 36023 ft | 469 kts | 311° |
| 2026-04-20 14:44 | -18.64173 | -51.55713 | 36024 ft | 469 kts | 311° |
| 2026-04-20 14:44 | -18.59340 | -51.60347 | 36029 ft | 470 kts | 312° |
| 2026-04-20 14:45 | -18.54497 | -51.64973 | 36035 ft | 470 kts | 312° |
| 2026-04-20 14:45 | -18.49648 | -51.69593 | 36033 ft | 470 kts | 312° |
| 2026-04-20 14:46 | -18.44790 | -51.74210 | 36039 ft | 470 kts | 312° |
| 2026-04-20 14:46 | -18.39936 | -51.78837 | 36045 ft | 471 kts | 312° |
| 2026-04-20 14:47 | -18.35079 | -51.83474 | 36044 ft | 471 kts | 312° |
| 2026-04-20 14:48 | -18.27787 | -51.90403 | 36042 ft | 471 kts | 312° |
| 2026-04-20 14:48 | -18.22929 | -51.95020 | 36039 ft | 470 kts | 312° |
| 2026-04-20 14:49 | -18.18071 | -51.99623 | 36037 ft | 470 kts | 312° |
| 2026-04-20 14:49 | -18.13205 | -52.04232 | 36040 ft | 470 kts | 312° |
| 2026-04-20 14:50 | -18.08344 | -52.08839 | 36042 ft | 471 kts | 312° |
| 2026-04-20 14:50 | -18.03486 | -52.13450 | 36040 ft | 471 kts | 313° |
| 2026-04-20 14:51 | -17.98939 | -52.18318 | 36046 ft | 461 kts | 300° |
| 2026-04-20 14:51 | -17.95525 | -52.23974 | 36043 ft | 458 kts | 297° |
| 2026-04-20 14:52 | -17.92136 | -52.29653 | 36035 ft | 459 kts | 297° |
| 2026-04-20 14:52 | -17.88747 | -52.35330 | 36037 ft | 459 kts | 297° |
| 2026-04-20 14:53 | -17.85377 | -52.40968 | 36043 ft | 459 kts | 297° |
| 2026-04-20 14:53 | -17.81984 | -52.46645 | 36042 ft | 459 kts | 297° |
| 2026-04-20 14:54 | -17.78587 | -52.52328 | 36038 ft | 459 kts | 297° |
| 2026-04-20 14:54 | -17.75186 | -52.57999 | 36040 ft | 459 kts | 297° |
| 2026-04-20 14:55 | -17.71790 | -52.63671 | 36042 ft | 459 kts | 297° |
| 2026-04-20 14:55 | -17.68403 | -52.69337 | 36046 ft | 459 kts | 297° |
| 2026-04-20 14:56 | -17.64995 | -52.75001 | 36039 ft | 459 kts | 297° |
| 2026-04-20 14:56 | -17.61587 | -52.80658 | 36038 ft | 459 kts | 297° |
| 2026-04-20 14:57 | -17.58188 | -52.86311 | 36040 ft | 458 kts | 297° |
| 2026-04-20 14:57 | -17.54792 | -52.91967 | 36040 ft | 459 kts | 297° |
| 2026-04-20 14:58 | -17.51402 | -52.97588 | 36040 ft | 459 kts | 297° |
| 2026-04-20 14:58 | -17.47969 | -53.03274 | 36038 ft | 459 kts | 297° |
| 2026-04-20 14:59 | -17.44580 | -53.08892 | 36034 ft | 459 kts | 298° |
| 2026-04-20 14:59 | -17.41169 | -53.14551 | 36029 ft | 459 kts | 298° |
| 2026-04-20 15:00 | -17.37759 | -53.20201 | 36030 ft | 459 kts | 298° |
| 2026-04-20 15:00 | -17.34341 | -53.25855 | 36034 ft | 460 kts | 298° |
| 2026-04-20 15:01 | -17.30915 | -53.31509 | 36032 ft | 460 kts | 298° |
| 2026-04-20 15:01 | -17.27501 | -53.37159 | 36033 ft | 460 kts | 298° |
| 2026-04-20 15:02 | -17.24066 | -53.42808 | 36026 ft | 460 kts | 298° |
| 2026-04-20 15:02 | -17.20633 | -53.48454 | 36028 ft | 460 kts | 298° |
| 2026-04-20 15:03 | -17.17199 | -53.54116 | 36031 ft | 460 kts | 298° |
| 2026-04-20 15:03 | -17.13770 | -53.59771 | 36031 ft | 461 kts | 298° |
| 2026-04-20 15:04 | -17.10330 | -53.65422 | 36035 ft | 461 kts | 298° |
| 2026-04-20 15:04 | -17.07040 | -53.71156 | 36040 ft | 459 kts | 295° |
| 2026-04-20 15:05 | -17.04038 | -53.77038 | 36033 ft | 458 kts | 294° |
| 2026-04-20 15:05 | -17.01077 | -53.82931 | 36033 ft | 458 kts | 294° |
| 2026-04-20 15:06 | -16.98035 | -53.88788 | 36025 ft | 459 kts | 295° |
| 2026-04-20 15:06 | -16.94952 | -53.94622 | 36026 ft | 459 kts | 295° |
| 2026-04-20 15:07 | -16.91873 | -54.00464 | 36017 ft | 459 kts | 295° |
| 2026-04-20 15:07 | -16.88809 | -54.06302 | 36020 ft | 459 kts | 295° |
| 2026-04-20 15:08 | -16.85745 | -54.12153 | 36025 ft | 459 kts | 295° |
| 2026-04-20 15:08 | -16.82673 | -54.17992 | 36009 ft | 459 kts | 295° |
| 2026-04-20 15:09 | -16.79592 | -54.23835 | 36007 ft | 459 kts | 295° |
| 2026-04-20 15:09 | -16.76521 | -54.29679 | 36003 ft | 459 kts | 295° |
| 2026-04-20 15:10 | -16.73444 | -54.35516 | 36004 ft | 459 kts | 295° |
| 2026-04-20 15:10 | -16.70358 | -54.41359 | 36004 ft | 459 kts | 295° |
| 2026-04-20 15:11 | -16.67293 | -54.47161 | 36004 ft | 460 kts | 295° |
| 2026-04-20 15:11 | -16.64176 | -54.53042 | 36003 ft | 460 kts | 295° |
| 2026-04-20 15:12 | -16.61111 | -54.58849 | 36000 ft | 460 kts | 296° |
| 2026-04-20 15:12 | -16.58011 | -54.64690 | 35998 ft | 461 kts | 297° |
| 2026-04-20 15:13 | -16.54602 | -54.70378 | 36001 ft | 464 kts | 300° |
| 2026-04-20 15:13 | -16.50983 | -54.75954 | 36008 ft | 464 kts | 301° |
| 2026-04-20 15:14 | -16.47388 | -54.81553 | 36010 ft | 464 kts | 300° |
| 2026-04-20 15:14 | -16.43865 | -54.87189 | 36010 ft | 464 kts | 300° |
| 2026-04-20 15:15 | -16.40361 | -54.92829 | 36007 ft | 464 kts | 300° |
| 2026-04-20 15:15 | -16.36842 | -54.98462 | 36006 ft | 464 kts | 300° |
| 2026-04-20 15:16 | -16.33310 | -55.04090 | 36008 ft | 465 kts | 300° |
| 2026-04-20 15:16 | -16.29791 | -55.09680 | 36007 ft | 465 kts | 300° |
| 2026-04-20 15:17 | -16.26255 | -55.15305 | 36005 ft | 464 kts | 300° |
| 2026-04-20 15:17 | -16.22724 | -55.20939 | 36007 ft | 464 kts | 300° |
| 2026-04-20 15:18 | -16.19188 | -55.26565 | 35999 ft | 464 kts | 300° |
| 2026-04-20 15:18 | -16.15653 | -55.32172 | 35996 ft | 464 kts | 301° |
| 2026-04-20 15:19 | -16.12691 | -55.36871 | 35998 ft | 463 kts | 301° |
| 2026-04-20 15:19 | -16.09162 | -55.42475 | 35996 ft | 463 kts | 301° |
| 2026-04-20 15:20 | -16.05644 | -55.48054 | 35996 ft | 464 kts | 301° |
| 2026-04-20 15:20 | -16.02107 | -55.53654 | 35999 ft | 464 kts | 301° |
| 2026-04-20 15:21 | -15.98564 | -55.59260 | 36000 ft | 464 kts | 301° |
| 2026-04-20 15:21 | -15.95016 | -55.64863 | 35994 ft | 463 kts | 301° |
| 2026-04-20 15:22 | -15.91472 | -55.70456 | 35990 ft | 464 kts | 301° |
| 2026-04-20 15:22 | -15.87923 | -55.76063 | 35992 ft | 464 kts | 301° |
| 2026-04-20 15:23 | -15.84377 | -55.81659 | 35991 ft | 464 kts | 301° |
| 2026-04-20 15:23 | -15.80833 | -55.87252 | 36000 ft | 464 kts | 301° |
| 2026-04-20 15:24 | -15.77283 | -55.92846 | 36007 ft | 463 kts | 301° |
| 2026-04-20 15:24 | -15.73731 | -55.98431 | 36012 ft | 463 kts | 301° |
| 2026-04-20 15:25 | -15.70177 | -56.04005 | 36014 ft | 463 kts | 301° |
| 2026-04-20 15:25 | -15.66623 | -56.09587 | 36014 ft | 463 kts | 301° |
| 2026-04-20 15:26 | -15.63669 | -56.15443 | 36016 ft | 461 kts | 293° |
| 2026-04-20 15:26 | -15.60938 | -56.21462 | 36013 ft | 461 kts | 293° |
| 2026-04-20 15:27 | -15.58190 | -56.27470 | 35997 ft | 461 kts | 294° |
| 2026-04-20 15:27 | -15.55444 | -56.33472 | 36000 ft | 461 kts | 294° |
| 2026-04-20 15:28 | -15.52708 | -56.39473 | 36001 ft | 460 kts | 294° |
| 2026-04-20 15:28 | -15.49970 | -56.45471 | 35998 ft | 460 kts | 294° |
| 2026-04-20 15:29 | -15.47226 | -56.51461 | 35992 ft | 460 kts | 294° |
| 2026-04-20 15:29 | -15.44477 | -56.57448 | 35992 ft | 460 kts | 294° |
| 2026-04-20 15:30 | -15.41720 | -56.63441 | 36002 ft | 460 kts | 294° |
| 2026-04-20 15:30 | -15.38975 | -56.69428 | 36007 ft | 461 kts | 294° |
| 2026-04-20 15:31 | -15.36223 | -56.75431 | 36014 ft | 461 kts | 294° |
| 2026-04-20 15:31 | -15.33468 | -56.81424 | 36016 ft | 461 kts | 294° |
| 2026-04-20 15:32 | -15.30704 | -56.87417 | 36021 ft | 461 kts | 294° |
| 2026-04-20 15:32 | -15.27941 | -56.93421 | 36012 ft | 461 kts | 294° |
| 2026-04-20 15:33 | -15.25171 | -56.99427 | 36012 ft | 462 kts | 294° |
| 2026-04-20 15:33 | -15.22400 | -57.05427 | 36014 ft | 462 kts | 294° |
| 2026-04-20 15:34 | -15.19651 | -57.11395 | 36009 ft | 462 kts | 294° |
| 2026-04-20 15:34 | -15.16881 | -57.17395 | 36009 ft | 462 kts | 294° |
| 2026-04-20 15:35 | -15.14101 | -57.23389 | 36007 ft | 462 kts | 294° |
| 2026-04-20 15:35 | -15.11315 | -57.29391 | 36009 ft | 462 kts | 294° |
| 2026-04-20 15:36 | -15.08544 | -57.35388 | 36011 ft | 462 kts | 294° |
| 2026-04-20 15:36 | -15.05769 | -57.41384 | 35998 ft | 462 kts | 294° |
| 2026-04-20 15:37 | -15.02982 | -57.47381 | 35996 ft | 463 kts | 294° |
| 2026-04-20 15:37 | -15.00183 | -57.53382 | 35991 ft | 463 kts | 296° |
| 2026-04-20 15:38 | -14.96377 | -57.58748 | 35991 ft | 465 kts | 311° |
| 2026-04-20 15:38 | -14.91977 | -57.63662 | 35992 ft | 466 kts | 311° |
| 2026-04-20 15:39 | -14.87585 | -57.68596 | 35997 ft | 467 kts | 311° |
| 2026-04-20 15:39 | -14.83188 | -57.73538 | 36004 ft | 467 kts | 311° |
| 2026-04-20 15:40 | -14.78786 | -57.78478 | 36001 ft | 467 kts | 311° |
| 2026-04-20 15:40 | -14.74377 | -57.83410 | 36007 ft | 468 kts | 311° |
| 2026-04-20 15:41 | -14.69976 | -57.88313 | 36006 ft | 468 kts | 311° |
| 2026-04-20 15:41 | -14.65556 | -57.93249 | 36019 ft | 468 kts | 311° |
| 2026-04-20 15:42 | -14.61145 | -57.98193 | 36025 ft | 467 kts | 311° |
| 2026-04-20 15:42 | -14.56741 | -58.03123 | 36021 ft | 467 kts | 311° |
| 2026-04-20 15:43 | -14.52320 | -58.08049 | 36016 ft | 467 kts | 311° |
| 2026-04-20 15:43 | -14.47901 | -58.12971 | 36015 ft | 468 kts | 311° |
| 2026-04-20 15:44 | -14.43480 | -58.17904 | 36020 ft | 468 kts | 311° |
| 2026-04-20 15:44 | -14.39050 | -58.22834 | 36026 ft | 468 kts | 312° |
| 2026-04-20 15:45 | -14.34620 | -58.27764 | 36037 ft | 469 kts | 312° |
| 2026-04-20 15:45 | -14.30184 | -58.32690 | 36035 ft | 469 kts | 312° |
| 2026-04-20 15:46 | -14.25748 | -58.37617 | 36029 ft | 469 kts | 312° |
| 2026-04-20 15:46 | -14.21312 | -58.42539 | 36025 ft | 469 kts | 312° |
| 2026-04-20 15:47 | -14.16865 | -58.47475 | 36023 ft | 470 kts | 312° |
| 2026-04-20 15:47 | -14.12418 | -58.52411 | 36023 ft | 470 kts | 312° |
| 2026-04-20 15:48 | -14.07964 | -58.57349 | 36029 ft | 470 kts | 312° |
| 2026-04-20 15:48 | -14.03511 | -58.62285 | 36020 ft | 471 kts | 312° |
| 2026-04-20 15:49 | -13.99041 | -58.67227 | 36018 ft | 472 kts | 312° |
| 2026-04-20 15:49 | -13.94571 | -58.72171 | 36028 ft | 472 kts | 312° |
| 2026-04-20 15:50 | -13.90101 | -58.77117 | 36032 ft | 472 kts | 312° |
| 2026-04-20 15:50 | -13.85636 | -58.82064 | 36032 ft | 472 kts | 312° |
| 2026-04-20 15:51 | -13.81159 | -58.87006 | 36040 ft | 471 kts | 312° |
| 2026-04-20 15:51 | -13.76717 | -58.91905 | 36030 ft | 472 kts | 313° |
| 2026-04-20 15:52 | -13.72231 | -58.96856 | 36016 ft | 473 kts | 312° |
| 2026-04-20 15:52 | -13.67739 | -59.01811 | 36020 ft | 474 kts | 312° |
| 2026-04-20 15:53 | -13.60973 | -59.09256 | 36023 ft | 475 kts | 313° |
| 2026-04-20 15:53 | -13.56456 | -59.14223 | 36025 ft | 475 kts | 313° |
| 2026-04-20 15:54 | -13.51942 | -59.19194 | 36024 ft | 476 kts | 313° |
| 2026-04-20 15:54 | -13.47432 | -59.24163 | 36023 ft | 476 kts | 313° |
| 2026-04-20 15:55 | -13.42896 | -59.29131 | 36025 ft | 477 kts | 313° |
| 2026-04-20 15:55 | -13.38364 | -59.34103 | 36025 ft | 477 kts | 313° |
| 2026-04-20 15:56 | -13.33834 | -59.39073 | 36028 ft | 476 kts | 313° |
| 2026-04-20 15:56 | -13.29308 | -59.44041 | 36028 ft | 476 kts | 313° |
| 2026-04-20 15:57 | -13.24778 | -59.49003 | 36032 ft | 476 kts | 313° |
| 2026-04-20 15:57 | -13.20248 | -59.53971 | 36029 ft | 476 kts | 313° |
| 2026-04-20 15:58 | -13.15728 | -59.58923 | 36026 ft | 476 kts | 313° |
| 2026-04-20 15:58 | -13.11202 | -59.63872 | 36033 ft | 475 kts | 313° |
| 2026-04-20 15:59 | -13.06706 | -59.68780 | 36033 ft | 475 kts | 313° |
| 2026-04-20 15:59 | -13.02162 | -59.73745 | 36030 ft | 474 kts | 313° |
| 2026-04-20 16:00 | -12.97651 | -59.78680 | 36021 ft | 474 kts | 313° |
| 2026-04-20 16:00 | -12.93135 | -59.83620 | 36005 ft | 476 kts | 313° |
| 2026-04-20 16:01 | -12.88622 | -59.88542 | 36003 ft | 477 kts | 313° |
| 2026-04-20 16:01 | -12.84068 | -59.93498 | 36009 ft | 478 kts | 313° |
| 2026-04-20 16:02 | -12.79507 | -59.98461 | 36015 ft | 478 kts | 313° |
| 2026-04-20 16:02 | -12.74955 | -60.03424 | 36090 ft | 479 kts | 313° |
| 2026-04-20 16:03 | -12.70391 | -60.08395 | 36093 ft | 478 kts | 313° |
| 2026-04-20 16:03 | -12.65774 | -60.13302 | 36086 ft | 479 kts | 315° |
| 2026-04-20 16:04 | -12.61022 | -60.18085 | 36000 ft | 480 kts | 316° |
| 2026-04-20 16:04 | -12.57039 | -60.22050 | 36000 ft | 481 kts | 316° |
| 2026-04-20 16:05 | -12.52269 | -60.26859 | 36000 ft | 481 kts | 315° |
| 2026-04-20 16:05 | -12.47485 | -60.31723 | 36008 ft | 481 kts | 315° |
| 2026-04-20 16:06 | -12.42773 | -60.36520 | 36004 ft | 481 kts | 316° |
| 2026-04-20 16:06 | -12.37982 | -60.41371 | 36001 ft | 481 kts | 316° |
| 2026-04-20 16:07 | -12.33254 | -60.46153 | 36003 ft | 481 kts | 316° |
| 2026-04-20 16:07 | -12.28500 | -60.50968 | 36003 ft | 481 kts | 316° |
| 2026-04-20 16:08 | -12.23747 | -60.55782 | 36001 ft | 481 kts | 316° |
| 2026-04-20 16:08 | -12.18987 | -60.60590 | 36003 ft | 481 kts | 316° |
| 2026-04-20 16:09 | -12.14223 | -60.65396 | 36003 ft | 481 kts | 316° |
| 2026-04-20 16:09 | -12.09452 | -60.70203 | 35998 ft | 482 kts | 316° |
| 2026-04-20 16:10 | -12.04684 | -60.75020 | 36001 ft | 482 kts | 316° |
| 2026-04-20 16:10 | -11.99920 | -60.79834 | 35996 ft | 482 kts | 316° |
| 2026-04-20 16:11 | -11.95138 | -60.84648 | 35992 ft | 482 kts | 316° |
| 2026-04-20 16:11 | -11.90361 | -60.89455 | 35991 ft | 482 kts | 316° |
| 2026-04-20 16:12 | -11.85588 | -60.94264 | 35990 ft | 482 kts | 316° |
| 2026-04-20 16:12 | -11.80838 | -60.99050 | 35986 ft | 483 kts | 316° |
| 2026-04-20 16:13 | -11.76057 | -61.03865 | 35978 ft | 483 kts | 316° |
| 2026-04-20 16:13 | -11.71266 | -61.08689 | 35977 ft | 484 kts | 316° |
| 2026-04-20 16:14 | -11.66467 | -61.13508 | 35980 ft | 484 kts | 316° |
| 2026-04-20 16:14 | -11.61665 | -61.18323 | 35981 ft | 484 kts | 316° |
| 2026-04-20 16:15 | -11.56859 | -61.23141 | 35985 ft | 484 kts | 316° |
| 2026-04-20 16:15 | -11.52058 | -61.27962 | 35980 ft | 485 kts | 316° |
| 2026-04-20 16:16 | -11.47251 | -61.32795 | 35976 ft | 485 kts | 316° |
| 2026-04-20 16:16 | -11.42436 | -61.37623 | 35985 ft | 485 kts | 316° |
| 2026-04-20 16:17 | -11.37616 | -61.42443 | 35995 ft | 486 kts | 316° |
| 2026-04-20 16:17 | -11.32864 | -61.47273 | 35997 ft | 485 kts | 315° |
| 2026-04-20 16:18 | -11.28217 | -61.52264 | 35997 ft | 485 kts | 314° |
| 2026-04-20 16:18 | -11.23608 | -61.57288 | 35995 ft | 486 kts | 314° |
| 2026-04-20 16:19 | -11.18949 | -61.62287 | 35987 ft | 486 kts | 315° |
| 2026-04-20 16:19 | -11.14275 | -61.67261 | 35987 ft | 486 kts | 315° |
| 2026-04-20 16:20 | -11.09600 | -61.72228 | 35990 ft | 486 kts | 315° |
| 2026-04-20 16:20 | -11.04922 | -61.77214 | 35992 ft | 487 kts | 315° |
| 2026-04-20 16:21 | -11.00250 | -61.82198 | 35997 ft | 487 kts | 315° |
| 2026-04-20 16:21 | -10.95575 | -61.87182 | 35996 ft | 487 kts | 315° |
| 2026-04-20 16:22 | -10.90891 | -61.92159 | 35993 ft | 487 kts | 315° |
| 2026-04-20 16:22 | -10.86196 | -61.97059 | 35986 ft | 487 kts | 317° |
| 2026-04-20 16:23 | -10.81261 | -62.01782 | 35989 ft | 487 kts | 319° |
| 2026-04-20 16:23 | -10.76258 | -62.06435 | 35988 ft | 487 kts | 319° |
| 2026-04-20 16:24 | -10.71305 | -62.11122 | 35988 ft | 487 kts | 318° |
| 2026-04-20 16:24 | -10.66378 | -62.15862 | 35991 ft | 487 kts | 318° |
| 2026-04-20 16:25 | -10.61460 | -62.20601 | 35990 ft | 487 kts | 318° |
| 2026-04-20 16:25 | -10.56531 | -62.25329 | 35992 ft | 487 kts | 318° |
| 2026-04-20 16:26 | -10.51597 | -62.30040 | 35994 ft | 487 kts | 318° |
| 2026-04-20 16:26 | -10.46659 | -62.34753 | 35994 ft | 487 kts | 318° |
| 2026-04-20 16:27 | -10.41719 | -62.39468 | 35991 ft | 487 kts | 318° |
| 2026-04-20 16:27 | -10.36788 | -62.44183 | 35992 ft | 487 kts | 318° |
| 2026-04-20 16:28 | -10.31847 | -62.48904 | 35990 ft | 487 kts | 318° |
| 2026-04-20 16:28 | -10.26911 | -62.53611 | 35989 ft | 487 kts | 318° |
| 2026-04-20 16:29 | -10.21975 | -62.58322 | 35992 ft | 487 kts | 318° |
| 2026-04-20 16:29 | -10.17038 | -62.63024 | 35992 ft | 487 kts | 318° |
| 2026-04-20 16:30 | -10.12085 | -62.67718 | 35989 ft | 487 kts | 318° |
| 2026-04-20 16:30 | -10.07147 | -62.72421 | 35998 ft | 487 kts | 318° |
| 2026-04-20 16:31 | -10.02200 | -62.77132 | 35992 ft | 487 kts | 318° |
| 2026-04-20 16:31 | -9.97253 | -62.81832 | 35988 ft | 487 kts | 318° |
| 2026-04-20 16:32 | -9.92300 | -62.86529 | 35971 ft | 483 kts | 318° |
| 2026-04-20 16:32 | -9.89871 | -62.88832 | 35627 ft | 475 kts | 318° |
| 2026-04-20 16:32 | -9.87468 | -62.91112 | 35032 ft | 473 kts | 318° |
| 2026-04-20 16:33 | -9.85067 | -62.93395 | 34380 ft | 473 kts | 318° |
| 2026-04-20 16:33 | -9.82663 | -62.95684 | 33646 ft | 475 kts | 318° |
| 2026-04-20 16:33 | -9.80255 | -62.97971 | 32854 ft | 476 kts | 318° |
| 2026-04-20 16:33 | -9.77862 | -63.00237 | 32089 ft | 476 kts | 318° |
| 2026-04-20 16:34 | -9.75408 | -63.02556 | 31297 ft | 477 kts | 318° |
| 2026-04-20 16:34 | -9.73012 | -63.04822 | 30526 ft | 478 kts | 317° |
| 2026-04-20 16:34 | -9.70584 | -63.07128 | 29701 ft | 478 kts | 317° |
| 2026-04-20 16:34 | -9.68163 | -63.09426 | 28989 ft | 475 kts | 317° |
| 2026-04-20 16:35 | -9.65767 | -63.11700 | 28351 ft | 469 kts | 317° |
| 2026-04-20 16:35 | -9.63393 | -63.13948 | 27709 ft | 464 kts | 317° |
| 2026-04-20 16:35 | -9.61046 | -63.16171 | 27108 ft | 460 kts | 317° |
| 2026-04-20 16:35 | -9.58726 | -63.18369 | 26517 ft | 455 kts | 317° |
| 2026-04-20 16:36 | -9.56423 | -63.20551 | 25932 ft | 451 kts | 317° |
| 2026-04-20 16:36 | -9.54142 | -63.22714 | 25356 ft | 447 kts | 317° |
| 2026-04-20 16:36 | -9.51876 | -63.24857 | 24777 ft | 443 kts | 317° |
| 2026-04-20 16:36 | -9.49631 | -63.26974 | 24222 ft | 440 kts | 318° |
| 2026-04-20 16:37 | -9.47401 | -63.29079 | 23669 ft | 436 kts | 317° |
| 2026-04-20 16:37 | -9.45192 | -63.31170 | 23054 ft | 433 kts | 317° |
| 2026-04-20 16:37 | -9.42947 | -63.33246 | 22434 ft | 429 kts | 322° |
| 2026-04-20 16:37 | -9.40504 | -63.34929 | 21870 ft | 423 kts | 332° |
| 2026-04-20 16:38 | -9.37834 | -63.36132 | 21314 ft | 418 kts | 342° |
| 2026-04-20 16:38 | -9.35069 | -63.36848 | 20764 ft | 414 kts | 349° |
| 2026-04-20 16:38 | -9.32332 | -63.37730 | 20486 ft | 400 kts | 334° |
| 2026-04-20 16:38 | -9.30086 | -63.39239 | 20322 ft | 378 kts | 319° |
| 2026-04-20 16:39 | -9.28355 | -63.41150 | 20075 ft | 360 kts | 310° |
| 2026-04-20 16:39 | -9.26786 | -63.43060 | 19706 ft | 346 kts | 310° |
| 2026-04-20 16:39 | -9.25264 | -63.44912 | 19222 ft | 339 kts | 311° |
| 2026-04-20 16:39 | -9.23791 | -63.46702 | 18778 ft | 332 kts | 311° |
| 2026-04-20 16:40 | -9.22315 | -63.48492 | 18163 ft | 331 kts | 311° |
| 2026-04-20 16:40 | -9.20826 | -63.50295 | 17327 ft | 334 kts | 311° |
| 2026-04-20 16:40 | -9.19356 | -63.52078 | 16883 ft | 326 kts | 311° |
| 2026-04-20 16:40 | -9.17920 | -63.53822 | 16293 ft | 322 kts | 311° |
| 2026-04-20 16:41 | -9.16472 | -63.55581 | 15481 ft | 328 kts | 311° |
| 2026-04-20 16:41 | -9.15016 | -63.57350 | 14949 ft | 323 kts | 310° |
| 2026-04-20 16:41 | -9.13600 | -63.59069 | 14574 ft | 313 kts | 310° |
| 2026-04-20 16:41 | -9.12229 | -63.60727 | 14262 ft | 302 kts | 310° |
| 2026-04-20 16:42 | -9.10890 | -63.62346 | 13801 ft | 298 kts | 310° |
| 2026-04-20 16:42 | -9.09566 | -63.63948 | 13221 ft | 297 kts | 311° |
| 2026-04-20 16:42 | -9.08246 | -63.65551 | 12648 ft | 295 kts | 310° |
| 2026-04-20 16:42 | -9.06934 | -63.67146 | 11995 ft | 297 kts | 310° |
| 2026-04-20 16:43 | -9.05608 | -63.68756 | 11326 ft | 298 kts | 310° |
| 2026-04-20 16:43 | -9.04277 | -63.70367 | 10696 ft | 298 kts | 310° |
| 2026-04-20 16:43 | -9.02968 | -63.71954 | 10249 ft | 291 kts | 310° |
| 2026-04-20 16:43 | -9.01674 | -63.73521 | 9662 ft | 289 kts | 310° |
| 2026-04-20 16:44 | -9.00389 | -63.75076 | 9038 ft | 287 kts | 310° |
| 2026-04-20 16:44 | -8.99129 | -63.76601 | 8726 ft | 274 kts | 310° |
| 2026-04-20 16:44 | -8.97935 | -63.78049 | 8333 ft | 265 kts | 310° |
| 2026-04-20 16:44 | -8.96763 | -63.79470 | 7845 ft | 261 kts | 310° |
| 2026-04-20 16:45 | -8.95606 | -63.80869 | 7347 ft | 258 kts | 310° |
| 2026-04-20 16:45 | -8.94465 | -63.82250 | 6858 ft | 254 kts | 310° |
| 2026-04-20 16:45 | -8.93328 | -63.83624 | 6244 ft | 253 kts | 310° |
| 2026-04-20 16:45 | -8.92222 | -63.84962 | 5672 ft | 240 kts | 310° |
| 2026-04-20 16:46 | -8.91180 | -63.86223 | 5229 ft | 228 kts | 310° |
| 2026-04-20 16:46 | -8.90189 | -63.87423 | 4676 ft | 224 kts | 310° |
| 2026-04-20 16:46 | -8.89057 | -63.88476 | 4061 ft | 220 kts | 327° |
| 2026-04-20 16:46 | -8.87678 | -63.89130 | 3456 ft | 219 kts | 344° |
| 2026-04-20 16:47 | -8.86183 | -63.89351 | 2851 ft | 217 kts | 357° |
| 2026-04-20 16:47 | -8.84680 | -63.89430 | 2250 ft | 215 kts | 356° |
| 2026-04-20 16:47 | -8.83258 | -63.89512 | 2107 ft | 192 kts | 356° |
| 2026-04-20 16:47 | -8.82014 | -63.89586 | 2065 ft | 168 kts | 357° |
| 2026-04-20 16:48 | -8.80902 | -63.89654 | 1977 ft | 153 kts | 356° |
| 2026-04-20 16:48 | -8.80210 | -63.89697 | 1956 ft | 149 kts | 357° |
| 2026-04-20 16:48 | -8.79185 | -63.89757 | 1742 ft | 145 kts | 356° |
| 2026-04-20 16:48 | -8.78182 | -63.89813 | 1547 ft | 144 kts | 357° |
| 2026-04-20 16:49 | -8.76849 | -63.89885 | 1294 ft | 143 kts | 357° |
| 2026-04-20 16:49 | -8.76196 | -63.89920 | 1167 ft | 142 kts | 357° |
| 2026-04-20 16:49 | -8.75201 | -63.89976 | 971 ft | 143 kts | 357° |
| 2026-04-20 16:49 | -8.74205 | -63.90038 | 772 ft | 143 kts | 357° |
| 2026-04-20 16:50 | -8.73212 | -63.90091 | 560 ft | 143 kts | 358° |
| 2026-04-20 16:50 | -8.72227 | -63.90155 | 362 ft | 142 kts | 358° |
| 2026-04-20 16:50 | -8.71271 | -63.90211 | 300 ft | 124 kts | 356° |
| 2026-04-20 16:50 | -8.70736 | -63.90244 | 302 ft | 21 kts | 360° |
| 2026-04-20 16:51 | -8.70639 | -63.90225 | 303 ft | 8 kts | 314° |
| 2026-04-20 16:51 | -8.70667 | -63.90248 | 299 ft | 8 kts | 178° |
| 2026-04-20 16:51 | -8.70721 | -63.90242 | 301 ft | 8 kts | 175° |
| 2026-04-20 16:51 | -8.70802 | -63.90238 | 302 ft | 17 kts | 176° |
| 2026-04-20 16:52 | -8.70936 | -63.90226 | 302 ft | 20 kts | 175° |
| 2026-04-20 16:52 | -8.71082 | -63.90216 | 299 ft | 22 kts | 176° |
| 2026-04-20 16:52 | -8.71243 | -63.90209 | 302 ft | 24 kts | 177° |
| 2026-04-20 16:52 | -8.71406 | -63.90186 | 302 ft | 23 kts | 148° |
| 2026-04-20 16:53 | -8.71435 | -63.90066 | 301 ft | 17 kts | 139° |
| 2026-04-20 16:53 | -8.71492 | -63.90023 | 299 ft | 9 kts | 109° |
| 2026-04-20 16:53 | -8.71493 | -63.89969 | 301 ft | 7 kts | 89° |
| 2026-04-20 16:53 | -8.71491 | -63.89932 | 299 ft | 4 kts | 86° |
| 2026-04-20 16:54 | -8.71491 | -63.89929 | 299 ft | 0 kts | 86° |